Data for 11/18/2012

Time Sea-Level Adjusted Pressure Absolute Pressure Temperature Relative Humidity Dew Point   
(mb) (inHg) (mb) (inHg) (C) (F) (%) (C) (F)
00:05 1011 29.85 840 24.81 4.7 40.4 61 -2.1 28.2
00:10 1010 29.83 840 24.81 4.9 40.8 60 -2.2 28.1
00:15 1010 29.83 840 24.81 4.8 40.6 61 -2.1 28.1
00:20 1010 29.83 840 24.81 4.2 39.6 64 -2 28.5
00:25 1010 29.83 840 24.81 4 39.2 62 -2.6 27.3
00:30 1010 29.83 840 24.81 4.4 39.9 62 -2.2 28
00:35 1010 29.83 840 24.81 4.1 39.4 62 -2.6 27.3
00:40 1010 29.83 840 24.81 4.7 40.5 61 -2.2 28
00:45 1010 29.83 840 24.81 4.4 39.8 62 -2.3 27.9
00:50 1010 29.83 839 24.78 4.4 40 62 -2.3 27.9
00:55 1010 29.83 839 24.78 4.4 40 60 -2.7 27.2
01:00 1010 29.83 839 24.78 5.4 41.8 56 -2.6 27.3
01:05 1010 29.83 839 24.78 6.7 44 52 -2.4 27.7
01:10 1010 29.83 839 24.78 6.1 43 53 -2.8 27
01:15 1010 29.83 839 24.78 7 44.5 49 -2.9 26.8
01:20 1010 29.83 839 24.78 7.2 44.9 51 -2.4 27.7
01:25 1010 29.83 839 24.78 6.3 43.3 56 -1.9 28.6
01:30 1010 29.83 839 24.78 5.2 41.3 59 -2.2 28
01:35 1010 29.83 839 24.78 5.1 41.3 57 -2.7 27.2
01:40 1010 29.83 839 24.78 5.4 41.7 57 -2.4 27.7
01:45 1010 29.83 840 24.81 5.2 41.4 58 -2.5 27.6
01:50 1010 29.83 840 24.81 5.1 41.2 58 -2.3 27.8
01:55 1010 29.83 840 24.81 5 41 59 -2.3 27.8
02:00 1010 29.83 840 24.81 5.4 41.6 57 -2.5 27.5
02:05 1010 29.83 840 24.81 5.4 41.6 57 -2.4 27.7
02:10 1010 29.83 840 24.81 5.6 42.1 56 -2.5 27.6
02:15 1010 29.83 840 24.81 5.9 42.6 55 -2.5 27.5
02:20 1010 29.83 840 24.81 6.4 43.6 54 -2.2 28.1
02:25 1010 29.83 839 24.78 5.9 42.6 55 -2.4 27.6
02:30 1010 29.83 839 24.78 6 42.8 56 -2 28.4
02:35 1010 29.83 839 24.78 5.4 41.6 60 -1.9 28.6
02:40 1010 29.83 839 24.78 4.9 40.8 59 -2.3 27.8
02:45 1010 29.83 839 24.78 5.5 41.9 57 -2.4 27.7
02:50 1010 29.83 839 24.78 5.9 42.6 55 -2.3 27.8
02:55 1010 29.83 839 24.78 5.9 42.6 58 -1.8 28.7
03:00 1010 29.83 839 24.78 5.4 41.8 58 -2.3 27.9
03:05 1010 29.83 839 24.78 5.5 41.9 58 -2 28.4
03:10 1010 29.83 839 24.78 5.4 41.7 58 -2.2 28
03:15 1010 29.83 839 24.78 5.9 42.6 56 -2.1 28.2
03:20 1010 29.83 839 24.78 5.8 42.4 57 -2.1 28.3
03:25 1010 29.83 839 24.78 5.9 42.5 55 -2.5 27.6
03:30 1010 29.83 839 24.78 7.1 44.7 49 -2.8 27
03:35 1010 29.83 839 24.78 8 46.3 50 -1.9 28.5
03:40 1010 29.83 839 24.78 7.5 45.5 51 -1.9 28.6
03:45 1009 29.8 839 24.78 7.8 46 49 -2.2 28.1
03:50 1010 29.83 839 24.78 7.6 45.7 51 -1.7 28.9
03:55 1010 29.83 839 24.78 7.7 45.9 49 -2.4 27.7
04:00 1010 29.83 839 24.78 8.3 46.9 51 -1.3 29.7
04:05 1009 29.8 839 24.78 6.9 44.4 55 -1.6 29.2
04:10 1009 29.8 839 24.78 6.7 44.1 55 -1.7 28.9
04:15 1009 29.8 839 24.78 6.5 43.7 56 -1.6 29.2
04:20 1009 29.8 839 24.78 6.2 43.1 59 -1.2 29.8
04:25 1009 29.8 839 24.78 6 42.8 60 -1.2 29.9
04:30 1009 29.8 838 24.75 6.2 43.2 58 -1.4 29.6
04:35 1009 29.8 838 24.75 6.6 43.9 56 -1.5 29.4
04:40 1009 29.8 838 24.75 7 44.6 54 -1.7 28.9
04:45 1009 29.8 838 24.75 7.1 44.9 52 -2 28.3
04:50 1009 29.8 838 24.75 7.4 45.3 52 -1.8 28.8
04:55 1009 29.8 838 24.75 8.1 46.6 49 -1.9 28.5
05:00 1009 29.8 838 24.75 8.3 46.9 50 -1.5 29.3
05:05 1009 29.8 838 24.75 8.6 47.4 47 -1.9 28.5
05:10 1009 29.8 838 24.75 9.1 48.5 47 -1.5 29.2
05:15 1009 29.8 838 24.75 9.2 48.5 47 -1.4 29.5
05:20 1009 29.8 838 24.75 8.9 48.1 48 -1.5 29.3
05:25 1008 29.77 838 24.75 9 48.2 48 -1.3 29.6
05:30 1009 29.8 838 24.75 8.6 47.5 49 -1.3 29.6
05:35 1009 29.8 838 24.75 8.6 47.5 49 -1.4 29.5
05:40 1009 29.8 838 24.75 8.5 47.3 50 -1.3 29.6
05:45 1008 29.77 838 24.75 8.4 47.1 50 -1.3 29.7
05:50 1008 29.77 838 24.75 8 46.4 52 -1.2 29.8
05:55 1008 29.77 838 24.75 7.8 46 52 -1.4 29.5
06:00 1008 29.77 838 24.75 7.7 45.9 51 -1.6 29.1
06:05 1009 29.8 838 24.75 8.6 47.5 48 -1.6 29
06:10 1009 29.8 838 24.75 8.9 47.9 48 -1.4 29.5
06:15 1009 29.8 838 24.75 8.7 47.6 48 -1.6 29.2
06:20 1009 29.8 838 24.75 8.9 47.9 48 -1.6 29.2
06:25 1009 29.8 838 24.75 8.9 48 48 -1.5 29.3
06:30 1009 29.8 838 24.75 8.6 47.5 50 -1.2 29.9
06:35 1009 29.8 838 24.75 8.1 46.5 51 -1.4 29.5
06:40 1009 29.8 838 24.75 7.8 46 51 -1.8 28.8
06:45 1009 29.8 838 24.75 7.9 46.3 52 -1.3 29.7
06:50 1009 29.8 838 24.75 7.8 46.1 50 -1.9 28.6
06:55 1009 29.8 838 24.75 8.3 46.9 50 -1.5 29.2
07:00 1009 29.8 838 24.75 8.3 47 50 -1.5 29.2
07:05 1009 29.8 838 24.75 8.3 47 50 -1.4 29.4
07:10 1009 29.8 838 24.75 8.2 46.8 52 -1.1 29.9
07:15 1009 29.8 838 24.75 7.9 46.2 53 -1.2 29.9
07:20 1009 29.8 838 24.75 7.7 45.8 53 -1.2 29.9
07:25 1009 29.8 838 24.75 7.7 45.8 52 -1.5 29.4
07:30 1009 29.8 838 24.75 7.8 46.1 55 -0.6 30.8
07:35 1009 29.8 838 24.75 7.2 45 57 -0.6 30.8
07:40 1009 29.8 838 24.75 6.4 43.6 61 -0.4 31.2
07:45 1009 29.8 838 24.75 6.7 44.1 58 -1 30.2
07:50 1009 29.8 838 24.75 6.7 44.1 57 -1.1 29.9
07:55 1009 29.8 838 24.75 6.7 44.1 58 -0.9 30.4
08:00 1009 29.8 838 24.75 6.4 43.5 60 -0.8 30.6
08:05 1009 29.8 838 24.75 6 42.7 61 -0.9 30.3
08:10 1009 29.8 838 24.75 5.6 42.2 62 -1.1 30.1
08:15 1009 29.8 838 24.75 5.7 42.3 62 -0.9 30.3
08:20 1009 29.8 838 24.75 5.5 41.8 63 -1.1 30.1
08:25 1009 29.8 838 24.75 5.1 41.1 64 -1.2 29.9
08:30 1009 29.8 839 24.78 5.5 41.9 62 -1.2 29.8
08:35 1009 29.8 839 24.78 5.8 42.5 60 -1.3 29.6
08:40 1009 29.8 839 24.78 6 42.9 60 -1.2 29.9
08:45 1010 29.83 839 24.78 6.1 42.9 60 -1 30.2
08:50 1010 29.83 839 24.78 6.3 43.3 60 -1 30.2
08:55 1010 29.83 839 24.78 6.3 43.4 58 -1.4 29.4
09:00 1010 29.83 839 24.78 7.1 44.9 54 -1.5 29.3
09:05 1010 29.83 839 24.78 7.6 45.7 53 -1.3 29.6
09:10 1010 29.83 839 24.78 7.6 45.7 54 -1.1 30
09:15 1010 29.83 839 24.78 7.5 45.4 53 -1.5 29.4
09:20 1010 29.83 839 24.78 7.5 45.5 54 -1.2 29.9
09:25 1010 29.83 839 24.78 7.2 44.9 55 -1.3 29.6
09:30 1010 29.83 840 24.81 7.1 44.8 55 -1.3 29.6
09:35 1011 29.85 840 24.81 7.3 45.1 54 -1.4 29.6
09:40 1011 29.85 840 24.81 6.7 44.1 61 -0.3 31.5
09:45 1011 29.85 840 24.81 5 41.1 67 -0.7 30.8
09:50 1011 29.85 840 24.81 4.4 39.9 69 -0.9 30.4
09:55 1011 29.85 840 24.81 4.2 39.5 70 -0.8 30.6
10:00 1012 29.88 841 24.83 4.2 39.5 69 -0.9 30.3
10:05 1012 29.88 841 24.83 4.5 40 68 -0.8 30.5
10:10 1012 29.88 841 24.83 5.3 41.5 67 -0.3 31.5
10:15 1012 29.88 841 24.83 5.6 42.1 69 0.4 32.8
10:20 1012 29.88 841 24.83 5.3 41.5 70 0.3 32.6
10:25 1012 29.88 841 24.83 5.4 41.7 69 0.3 32.5
10:30 1012 29.88 841 24.83 5.5 41.9 66 -0.4 31.3
10:35 1012 29.88 841 24.83 6 42.8 64 -0.4 31.3
10:40 1012 29.88 841 24.83 6 42.8 61 -1 30.2
10:45 1012 29.88 841 24.83 6.1 43 62 -0.5 31.1
10:50 1012 29.88 841 24.83 6 42.8 62 -0.7 30.8
10:55 1012 29.88 841 24.83 6.3 43.4 62 -0.3 31.4
11:00 1012 29.88 842 24.86 6.3 43.4 62 -0.3 31.4
11:05 1013 29.91 842 24.86 6.5 43.7 62 -0.3 31.5
11:10 1013 29.91 842 24.86 6.5 43.7 62 -0.2 31.7
11:15 1013 29.91 842 24.86 6.1 43 63 -0.4 31.2
11:20 1013 29.91 842 24.86 6.3 43.3 58 -1.4 29.5
11:25 1013 29.91 842 24.86 6.9 44.4 57 -0.9 30.4
11:30 1013 29.91 842 24.86 6.9 44.4 58 -0.8 30.5
11:35 1013 29.91 842 24.86 7 44.6 57 -0.9 30.4
11:40 1013 29.91 842 24.86 7.1 44.7 57 -0.9 30.3
11:45 1013 29.91 842 24.86 7.1 44.8 57 -0.9 30.4
11:50 1013 29.91 842 24.86 7 44.6 56 -1 30.1
11:55 1013 29.91 843 24.89 6.8 44.2 58 -0.8 30.6
12:00 1013 29.91 843 24.89 6.7 44 58 -0.9 30.4
12:05 1013 29.91 843 24.89 6.8 44.2 60 -0.5 31.1
12:10 1014 29.94 843 24.89 6.8 44.3 59 -0.5 31.1
12:15 1014 29.94 843 24.89 6.9 44.4 60 -0.4 31.3
12:20 1013 29.91 843 24.89 6.8 44.3 60 -0.3 31.4
12:25 1014 29.94 843 24.89 6.9 44.5 60 -0.2 31.7
12:30 1014 29.94 843 24.89 6.9 44.5 60 -0.2 31.6
12:35 1014 29.94 843 24.89 7 44.6 60 -0.3 31.5
12:40 1014 29.94 843 24.89 7.1 44.8 60 -0 31.9
12:45 1013 29.91 843 24.89 7 44.6 60 -0.3 31.4
12:50 1013 29.91 843 24.89 6.9 44.4 61 -0.1 31.8
12:55 1013 29.91 843 24.89 6.7 44 62 -0.2 31.7
13:00 1013 29.91 843 24.89 6.6 43.9 62 -0.2 31.6
13:05 1014 29.94 843 24.89 6.6 43.9 61 -0.4 31.4
13:10 1014 29.94 843 24.89 6.6 43.9 61 -0.3 31.5
13:15 1014 29.94 843 24.89 6.5 43.6 62 -0.4 31.3
13:20 1014 29.94 843 24.89 6.3 43.3 63 -0.3 31.5
13:25 1014 29.94 843 24.89 6.3 43.3 63 -0.2 31.6
13:30 1014 29.94 843 24.89 6.2 43.1 64 -0 32
13:35 1014 29.94 843 24.89 6.1 43.1 65 0.1 32.2
13:40 1014 29.94 843 24.89 5.7 42.3 67 0 32
13:45 1014 29.94 843 24.89 5.5 41.9 67 -0.1 31.9
13:50 1014 29.94 843 24.89 5.4 41.8 68 -0.1 31.9
13:55 1014 29.94 843 24.89 5.3 41.5 69 0.1 32.2
14:00 1014 29.94 843 24.89 5 40.9 70 -0 32
14:05 1014 29.94 843 24.89 4.8 40.6 71 -0 31.9
14:10 1014 29.94 843 24.89 4.5 40 72 -0.2 31.7
14:15 1014 29.94 843 24.89 4.2 39.6 73 -0.1 31.7
14:20 1014 29.94 844 24.92 3.9 39 73 -0.5 31
14:25 1014 29.94 844 24.92 3.7 38.6 72 -0.9 30.5
14:30 1015 29.97 844 24.92 3.6 38.5 73 -0.8 30.6
14:35 1015 29.97 844 24.92 3.7 38.6 73 -0.8 30.5
14:40 1015 29.97 844 24.92 3.5 38.3 79 0.1 32.2
14:45 1015 29.97 844 24.92 3 37.4 82 0.2 32.3
14:50 1015 29.97 844 24.92 3.3 37.9 81 0.3 32.5
14:55 1015 29.97 844 24.92 3.4 38.2 80 0.4 32.7
15:00 1015 29.97 844 24.92 2.7 36.8 83 0.1 32.2
15:05 1015 29.97 844 24.92 2.4 36.3 84 0 32
15:10 1015 29.97 844 24.92 2.3 36.2 85 0.1 32.2
15:15 1015 29.97 844 24.92 2.3 36.1 86 0.1 32.3
15:20 1015 29.97 844 24.92 2.3 36.1 86 0.1 32.2
15:25 1015 29.97 844 24.92 2.3 36.1 84 -0.2 31.6
15:30 1015 29.97 844 24.92 2.5 36.5 83 -0 31.9
15:35 1015 29.97 844 24.92 2.3 36.2 85 0 32.1
15:40 1015 29.97 844 24.92 2.2 36 85 -0.1 31.9
15:45 1014 29.94 844 24.92 2.2 36 85 0 32.1
15:50 1014 29.94 844 24.92 2.2 35.9 85 -0.1 31.9
15:55 1014 29.94 844 24.92 2.3 36.1 86 0.2 32.3
16:00 1014 29.94 844 24.92 2.3 36.1 85 0 32.1
16:05 1015 29.97 844 24.92 2.3 36.1 85 0.1 32.2
16:10 1015 29.97 844 24.92 2.4 36.3 85 0.1 32.2
16:15 1015 29.97 844 24.92 2.4 36.3 85 0.1 32.2
16:20 1015 29.97 844 24.92 2.4 36.3 84 -0.1 31.8
16:25 1015 29.97 844 24.92 2.6 36.6 84 0.1 32.1
16:30 1015 29.97 844 24.92 2.5 36.6 84 0.1 32.3
16:35 1015 29.97 844 24.92 2.5 36.5 85 0.2 32.4
16:40 1015 29.97 844 24.92 2.5 36.4 85 0.3 32.5
16:45 1015 29.97 844 24.92 2.5 36.4 84 0 32
16:50 1015 29.97 844 24.92 2.6 36.6 83 -0 32
16:55 1015 29.97 844 24.92 2.7 36.9 82 -0.1 31.8
17:00 1015 29.97 844 24.92 2.8 37 81 -0.1 31.8
17:05 1015 29.97 844 24.92 2.7 36.8 83 0 32.1
17:10 1015 29.97 844 24.92 2.6 36.6 83 0 32
17:15 1015 29.97 844 24.92 2.7 36.8 82 -0.1 31.8
17:20 1015 29.97 844 24.92 2.7 36.8 85 0.3 32.6
17:25 1015 29.97 845 24.95 2.5 36.6 85 0.2 32.4
17:30 1015 29.97 845 24.95 2.5 36.6 83 -0.1 31.9
17:35 1015 29.97 844 24.92 2.6 36.6 82 -0.1 31.8
17:40 1015 29.97 845 24.95 2.6 36.7 82 -0.2 31.6
17:45 1016 30 845 24.95 2.8 37.1 80 -0.3 31.5
17:50 1016 30 845 24.95 2.8 37.1 81 -0 32
17:55 1016 30 845 24.95 2.8 37 81 -0.2 31.6
18:00 1016 30 845 24.95 2.8 37.1 83 0.2 32.4
18:05 1016 30 845 24.95 2.8 37 83 0.3 32.5
18:10 1016 30 845 24.95 2.8 37 84 0.4 32.7
18:15 1016 30 845 24.95 2.8 37 84 0.4 32.6
18:20 1016 30 845 24.95 2.6 36.7 85 0.4 32.7
18:25 1016 30 845 24.95 2.5 36.5 86 0.3 32.6
18:30 1016 30 845 24.95 2.4 36.3 85 0.1 32.1
18:35 1016 30 845 24.95 2.3 36.2 84 -0 31.9
18:40 1016 30 845 24.95 2.4 36.3 83 -0.1 31.8
18:45 1016 30 845 24.95 2.6 36.7 81 -0.3 31.5
18:50 1016 30 845 24.95 2.8 37 81 -0.3 31.5
18:55 1016 30 845 24.95 2.7 36.9 80 -0.4 31.4
19:00 1016 30 846 24.98 2.8 37 79 -0.5 31.1
19:05 1016 30 846 24.98 2.8 37.1 81 -0 31.9
19:10 1016 30 846 24.98 2.5 36.6 81 -0.4 31.3
19:15 1016 30 846 24.98 2.6 36.6 82 -0.2 31.7
19:20 1016 30 846 24.98 2.5 36.5 82 -0.3 31.4
19:25 1016 30 846 24.98 2.6 36.6 78 -1 30.3
19:30 1017 30.03 846 24.98 2.8 37 77 -0.9 30.4
19:35 1017 30.03 846 24.98 3 37.3 76 -0.9 30.4
19:40 1017 30.03 846 24.98 3 37.4 72 -1.5 29.3
19:45 1016 30 846 24.98 3.2 37.7 75 -0.8 30.5
19:50 1016 30 846 24.98 3.1 37.7 71 -1.6 29.1
19:55 1017 30.03 846 24.98 3 37.5 73 -1.3 29.7
20:00 1016 30 846 24.98 2.8 37.1 75 -1.1 30
20:05 1017 30.03 846 24.98 2.8 37 74 -1.3 29.6
20:10 1017 30.03 846 24.98 2.8 37.1 75 -1.2 29.9
20:15 1017 30.03 846 24.98 2.8 37 75 -1.2 29.8
20:20 1017 30.03 846 24.98 2.6 36.8 76 -1.2 29.8
20:25 1017 30.03 846 24.98 2.5 36.6 77 -1.1 30
20:30 1016 30 846 24.98 2.5 36.5 77 -1.2 29.9
20:35 1016 30 846 24.98 2.4 36.3 78 -1 30.2
20:40 1017 30.03 846 24.98 2.3 36.1 79 -1 30.1
20:45 1017 30.03 846 24.98 2.2 35.9 79 -1 30.2
20:50 1017 30.03 846 24.98 2.1 35.7 80 -1.1 30
20:55 1017 30.03 846 24.98 2 35.7 79 -1.2 29.8
21:00 1017 30.03 846 24.98 2 35.7 77 -1.5 29.3
21:05 1016 30 846 24.98 2.2 35.9 76 -1.6 29.1
21:10 1016 30 846 24.98 2.2 36 75 -1.7 28.9
21:15 1017 30.03 846 24.98 2.3 36.1 74 -1.8 28.8
21:20 1017 30.03 846 24.98 2.3 36.1 74 -1.9 28.7
21:25 1017 30.03 846 24.98 2.3 36.2 73 -2 28.4
21:30 1017 30.03 846 24.98 2.2 36 74 -2 28.4
21:35 1017 30.03 846 24.98 1.9 35.4 75 -2 28.3
21:40 1017 30.03 846 24.98 1.6 34.9 76 -2.2 28.1
21:45 1017 30.03 846 24.98 1.6 34.9 75 -2.3 27.8
21:50 1017 30.03 846 24.98 1.6 34.9 75 -2.4 27.7
21:55 1017 30.03 846 24.98 1.7 35.1 74 -2.4 27.8
22:00 1017 30.03 846 24.98 1.8 35.3 74 -2.2 28
22:05 1017 30.03 846 24.98 1.7 35.1 76 -2 28.3
22:10 1017 30.03 846 24.98 1.7 35 76 -2.1 28.2
22:15 1017 30.03 846 24.98 1.7 35.1 75 -2.2 28
22:20 1017 30.03 846 24.98 1.7 35.1 76 -2.1 28.2
22:25 1017 30.03 846 24.98 1.6 34.9 77 -2.1 28.3
22:30 1017 30.03 846 24.98 1.4 34.6 77 -2.2 28.1
22:35 1017 30.03 846 24.98 1.4 34.4 77 -2.3 27.9
22:40 1017 30.03 846 24.98 1.3 34.3 77 -2.3 27.8
22:45 1017 30.03 846 24.98 1.2 34.1 77 -2.4 27.7
22:50 1017 30.03 846 24.98 1.1 33.9 77 -2.5 27.5
22:55 1017 30.03 846 24.98 1.2 34.2 75 -2.7 27.2
23:00 1017 30.03 846 24.98 1.2 34.2 77 -2.3 27.8
23:05 1017 30.03 846 24.98 0.9 33.6 78 -2.5 27.6
23:10 1017 30.03 847 25.01 0.8 33.5 78 -2.5 27.4
23:15 1017 30.03 847 25.01 0.8 33.4 78 -2.7 27.2
23:20 1017 30.03 847 25.01 0.8 33.4 78 -2.7 27.2
23:25 1017 30.03 847 25.01 0.8 33.4 77 -2.8 27
23:30 1017 30.03 847 25.01 0.8 33.5 77 -2.8 27
23:35 1017 30.03 846 24.98 0.8 33.4 77 -2.7 27.1
23:40 1017 30.03 847 25.01 0.6 33.1 79 -2.7 27.2
23:45 1017 30.03 847 25.01 0.5 32.9 79 -2.8 26.9
23:50 1017 30.03 847 25.01 0.5 33 78 -2.8 26.9
23:55 1018 30.06 847 25.01 0.8 33.4 77 -2.9 26.8
24:00 1018 30.06 847 25.01 1 33.8 76 -2.7 27.2